sensor_id;sensor_type;location;lat;lon;timestamp;P1;durP1;ratioP1;P2;durP2;ratioP2
7171;SDS011;3627;46.544;14.944;2024-02-26T00:02:22;1.60;;;1.60;;
7171;SDS011;3627;46.544;14.944;2024-02-26T00:04:49;1.50;;;1.50;;
7171;SDS011;3627;46.544;14.944;2024-02-26T00:07:16;1.58;;;1.58;;
7171;SDS011;3627;46.544;14.944;2024-02-26T00:09:43;1.58;;;1.58;;
7171;SDS011;3627;46.544;14.944;2024-02-26T00:12:10;1.50;;;1.50;;
7171;SDS011;3627;46.544;14.944;2024-02-26T00:14:36;1.40;;;1.40;;
7171;SDS011;3627;46.544;14.944;2024-02-26T00:17:03;1.50;;;1.50;;
7171;SDS011;3627;46.544;14.944;2024-02-26T00:19:29;1.60;;;1.60;;
7171;SDS011;3627;46.544;14.944;2024-02-26T00:21:55;1.50;;;1.50;;
7171;SDS011;3627;46.544;14.944;2024-02-26T00:24:22;1.50;;;1.50;;
7171;SDS011;3627;46.544;14.944;2024-02-26T00:26:49;1.50;;;1.50;;
7171;SDS011;3627;46.544;14.944;2024-02-26T00:29:19;1.60;;;1.60;;
7171;SDS011;3627;46.544;14.944;2024-02-26T00:31:46;1.55;;;1.55;;
7171;SDS011;3627;46.544;14.944;2024-02-26T00:34:13;1.50;;;1.50;;
7171;SDS011;3627;46.544;14.944;2024-02-26T00:36:39;1.50;;;1.50;;
7171;SDS011;3627;46.544;14.944;2024-02-26T00:39:05;1.50;;;1.50;;
7171;SDS011;3627;46.544;14.944;2024-02-26T00:41:32;1.40;;;1.40;;
7171;SDS011;3627;46.544;14.944;2024-02-26T00:44:00;1.40;;;1.40;;
7171;SDS011;3627;46.544;14.944;2024-02-26T00:46:26;1.52;;;1.52;;
7171;SDS011;3627;46.544;14.944;2024-02-26T00:48:53;1.60;;;1.60;;
7171;SDS011;3627;46.544;14.944;2024-02-26T00:51:19;1.55;;;1.55;;
7171;SDS011;3627;46.544;14.944;2024-02-26T00:53:45;1.40;;;1.40;;
7171;SDS011;3627;46.544;14.944;2024-02-26T00:56:12;1.58;;;1.58;;
7171;SDS011;3627;46.544;14.944;2024-02-26T00:58:38;1.45;;;1.45;;
7171;SDS011;3627;46.544;14.944;2024-02-26T01:01:06;1.50;;;1.50;;
7171;SDS011;3627;46.544;14.944;2024-02-26T01:03:32;1.45;;;1.45;;
7171;SDS011;3627;46.544;14.944;2024-02-26T01:05:58;1.58;;;1.58;;
7171;SDS011;3627;46.544;14.944;2024-02-26T01:08:25;1.50;;;1.50;;
7171;SDS011;3627;46.544;14.944;2024-02-26T01:10:51;1.30;;;1.30;;
7171;SDS011;3627;46.544;14.944;2024-02-26T01:13:18;1.50;;;1.50;;
7171;SDS011;3627;46.544;14.944;2024-02-26T01:15:44;1.55;;;1.55;;
7171;SDS011;3627;46.544;14.944;2024-02-26T01:18:12;1.40;;;1.40;;
7171;SDS011;3627;46.544;14.944;2024-02-26T01:20:38;1.50;;;1.50;;
7171;SDS011;3627;46.544;14.944;2024-02-26T01:23:05;1.60;;;1.60;;
7171;SDS011;3627;46.544;14.944;2024-02-26T01:25:31;1.58;;;1.58;;
7171;SDS011;3627;46.544;14.944;2024-02-26T01:27:57;1.50;;;1.50;;
7171;SDS011;3627;46.544;14.944;2024-02-26T01:30:24;1.60;;;1.60;;
7171;SDS011;3627;46.544;14.944;2024-02-26T01:32:50;1.50;;;1.50;;
7171;SDS011;3627;46.544;14.944;2024-02-26T01:35:18;1.30;;;1.30;;
7171;SDS011;3627;46.544;14.944;2024-02-26T01:37:45;1.40;;;1.40;;
7171;SDS011;3627;46.544;14.944;2024-02-26T01:40:11;1.50;;;1.50;;
7171;SDS011;3627;46.544;14.944;2024-02-26T01:42:42;1.40;;;1.40;;
7171;SDS011;3627;46.544;14.944;2024-02-26T01:45:09;1.40;;;1.40;;
7171;SDS011;3627;46.544;14.944;2024-02-26T01:47:40;1.60;;;1.60;;
7171;SDS011;3627;46.544;14.944;2024-02-26T01:50:07;1.50;;;1.50;;
7171;SDS011;3627;46.544;14.944;2024-02-26T01:52:34;1.42;;;1.42;;
7171;SDS011;3627;46.544;14.944;2024-02-26T01:55:01;1.45;;;1.45;;
7171;SDS011;3627;46.544;14.944;2024-02-26T01:57:28;1.50;;;1.50;;
7171;SDS011;3627;46.544;14.944;2024-02-26T01:59:55;1.40;;;1.40;;
7171;SDS011;3627;46.544;14.944;2024-02-26T02:02:21;1.50;;;1.50;;
7171;SDS011;3627;46.544;14.944;2024-02-26T02:04:48;1.60;;;1.60;;
7171;SDS011;3627;46.544;14.944;2024-02-26T02:07:14;1.55;;;1.55;;
7171;SDS011;3627;46.544;14.944;2024-02-26T02:09:42;1.60;;;1.60;;
7171;SDS011;3627;46.544;14.944;2024-02-26T02:12:09;1.33;;;1.33;;
7171;SDS011;3627;46.544;14.944;2024-02-26T02:14:35;1.40;;;1.40;;
7171;SDS011;3627;46.544;14.944;2024-02-26T02:17:02;1.40;;;1.40;;
7171;SDS011;3627;46.544;14.944;2024-02-26T02:19:28;1.58;;;1.58;;
7171;SDS011;3627;46.544;14.944;2024-02-26T02:21:56;1.45;;;1.45;;
7171;SDS011;3627;46.544;14.944;2024-02-26T02:24:22;1.40;;;1.40;;
7171;SDS011;3627;46.544;14.944;2024-02-26T02:26:48;1.50;;;1.50;;
7171;SDS011;3627;46.544;14.944;2024-02-26T02:29:15;1.40;;;1.40;;
7171;SDS011;3627;46.544;14.944;2024-02-26T02:31:41;1.50;;;1.50;;
7171;SDS011;3627;46.544;14.944;2024-02-26T02:34:08;1.40;;;1.40;;
7171;SDS011;3627;46.544;14.944;2024-02-26T02:36:35;1.63;;;1.63;;
7171;SDS011;3627;46.544;14.944;2024-02-26T02:39:15;1.40;;;1.40;;
7171;SDS011;3627;46.544;14.944;2024-02-26T02:41:41;1.40;;;1.40;;
7171;SDS011;3627;46.544;14.944;2024-02-26T02:44:07;1.50;;;1.50;;
7171;SDS011;3627;46.544;14.944;2024-02-26T02:46:34;1.40;;;1.40;;
7171;SDS011;3627;46.544;14.944;2024-02-26T02:49:01;1.50;;;1.50;;
7171;SDS011;3627;46.544;14.944;2024-02-26T02:51:27;1.40;;;1.40;;
7171;SDS011;3627;46.544;14.944;2024-02-26T02:53:54;1.30;;;1.30;;
7171;SDS011;3627;46.544;14.944;2024-02-26T02:56:22;1.40;;;1.40;;
7171;SDS011;3627;46.544;14.944;2024-02-26T02:58:48;1.40;;;1.40;;
7171;SDS011;3627;46.544;14.944;2024-02-26T03:01:14;1.40;;;1.40;;
7171;SDS011;3627;46.544;14.944;2024-02-26T03:03:41;1.40;;;1.40;;
7171;SDS011;3627;46.544;14.944;2024-02-26T03:06:07;1.40;;;1.40;;
7171;SDS011;3627;46.544;14.944;2024-02-26T03:08:33;1.52;;;1.52;;
7171;SDS011;3627;46.544;14.944;2024-02-26T03:11:03;1.42;;;1.42;;
7171;SDS011;3627;46.544;14.944;2024-02-26T03:13:31;1.48;;;1.48;;
7171;SDS011;3627;46.544;14.944;2024-02-26T03:15:57;1.42;;;1.42;;
7171;SDS011;3627;46.544;14.944;2024-02-26T03:18:23;1.40;;;1.40;;
7171;SDS011;3627;46.544;14.944;2024-02-26T03:20:50;1.50;;;1.50;;
7171;SDS011;3627;46.544;14.944;2024-02-26T03:23:16;1.40;;;1.40;;
7171;SDS011;3627;46.544;14.944;2024-02-26T03:25:44;1.40;;;1.40;;
7171;SDS011;3627;46.544;14.944;2024-02-26T03:28:11;1.40;;;1.40;;
7171;SDS011;3627;46.544;14.944;2024-02-26T03:30:39;1.45;;;1.45;;
7171;SDS011;3627;46.544;14.944;2024-02-26T03:33:05;1.40;;;1.40;;
7171;SDS011;3627;46.544;14.944;2024-02-26T03:35:31;1.50;;;1.50;;
7171;SDS011;3627;46.544;14.944;2024-02-26T03:37:58;1.40;;;1.40;;
7171;SDS011;3627;46.544;14.944;2024-02-26T03:40:24;1.60;;;1.60;;
7171;SDS011;3627;46.544;14.944;2024-02-26T03:42:50;1.42;;;1.42;;
7171;SDS011;3627;46.544;14.944;2024-02-26T03:45:19;1.50;;;1.50;;
7171;SDS011;3627;46.544;14.944;2024-02-26T03:47:46;1.50;;;1.50;;
7171;SDS011;3627;46.544;14.944;2024-02-26T03:50:13;1.50;;;1.50;;
7171;SDS011;3627;46.544;14.944;2024-02-26T03:52:39;1.50;;;1.50;;
7171;SDS011;3627;46.544;14.944;2024-02-26T03:55:05;1.58;;;1.58;;
7171;SDS011;3627;46.544;14.944;2024-02-26T03:57:32;1.42;;;1.42;;
7171;SDS011;3627;46.544;14.944;2024-02-26T03:59:59;1.60;;;1.60;;
7171;SDS011;3627;46.544;14.944;2024-02-26T04:02:25;1.40;;;1.40;;
7171;SDS011;3627;46.544;14.944;2024-02-26T04:04:53;1.50;;;1.50;;
7171;SDS011;3627;46.544;14.944;2024-02-26T04:07:19;1.48;;;1.48;;
7171;SDS011;3627;46.544;14.944;2024-02-26T04:09:46;1.40;;;1.40;;
7171;SDS011;3627;46.544;14.944;2024-02-26T04:12:12;1.30;;;1.30;;
7171;SDS011;3627;46.544;14.944;2024-02-26T04:14:39;1.40;;;1.40;;
7171;SDS011;3627;46.544;14.944;2024-02-26T04:17:05;1.48;;;1.48;;
7171;SDS011;3627;46.544;14.944;2024-02-26T04:19:32;1.40;;;1.40;;
7171;SDS011;3627;46.544;14.944;2024-02-26T04:22:01;1.48;;;1.48;;
7171;SDS011;3627;46.544;14.944;2024-02-26T04:24:27;1.50;;;1.50;;
7171;SDS011;3627;46.544;14.944;2024-02-26T04:26:54;1.50;;;1.50;;
7171;SDS011;3627;46.544;14.944;2024-02-26T04:29:20;1.45;;;1.45;;
7171;SDS011;3627;46.544;14.944;2024-02-26T04:31:47;1.42;;;1.42;;
7171;SDS011;3627;46.544;14.944;2024-02-26T04:34:13;1.50;;;1.50;;
7171;SDS011;3627;46.544;14.944;2024-02-26T04:36:39;1.50;;;1.50;;
7171;SDS011;3627;46.544;14.944;2024-02-26T04:39:07;1.50;;;1.50;;
7171;SDS011;3627;46.544;14.944;2024-02-26T04:41:33;1.50;;;1.50;;
7171;SDS011;3627;46.544;14.944;2024-02-26T04:44:00;1.58;;;1.58;;
7171;SDS011;3627;46.544;14.944;2024-02-26T04:46:26;1.58;;;1.58;;
7171;SDS011;3627;46.544;14.944;2024-02-26T04:48:53;1.40;;;1.40;;
7171;SDS011;3627;46.544;14.944;2024-02-26T04:51:19;1.35;;;1.35;;
7171;SDS011;3627;46.544;14.944;2024-02-26T04:53:46;1.55;;;1.55;;
7171;SDS011;3627;46.544;14.944;2024-02-26T04:56:13;1.65;;;1.65;;
7171;SDS011;3627;46.544;14.944;2024-02-26T04:58:40;1.40;;;1.40;;
7171;SDS011;3627;46.544;14.944;2024-02-26T05:01:06;1.60;;;1.60;;
7171;SDS011;3627;46.544;14.944;2024-02-26T05:03:35;1.42;;;1.42;;
7171;SDS011;3627;46.544;14.944;2024-02-26T05:06:01;1.60;;;1.60;;
7171;SDS011;3627;46.544;14.944;2024-02-26T05:08:28;1.60;;;1.60;;
7171;SDS011;3627;46.544;14.944;2024-02-26T05:10:55;1.50;;;1.50;;
7171;SDS011;3627;46.544;14.944;2024-02-26T05:13:23;1.40;;;1.40;;
7171;SDS011;3627;46.544;14.944;2024-02-26T05:15:50;1.58;;;1.58;;
7171;SDS011;3627;46.544;14.944;2024-02-26T05:18:17;1.55;;;1.55;;
7171;SDS011;3627;46.544;14.944;2024-02-26T05:20:43;1.60;;;1.60;;
7171;SDS011;3627;46.544;14.944;2024-02-26T05:23:10;1.50;;;1.50;;
7171;SDS011;3627;46.544;14.944;2024-02-26T05:25:37;1.40;;;1.40;;
7171;SDS011;3627;46.544;14.944;2024-02-26T05:28:03;1.50;;;1.50;;
7171;SDS011;3627;46.544;14.944;2024-02-26T05:30:31;1.50;;;1.50;;
7171;SDS011;3627;46.544;14.944;2024-02-26T05:32:58;1.45;;;1.45;;
7171;SDS011;3627;46.544;14.944;2024-02-26T05:35:24;1.50;;;1.50;;
7171;SDS011;3627;46.544;14.944;2024-02-26T05:37:50;1.50;;;1.50;;
7171;SDS011;3627;46.544;14.944;2024-02-26T05:40:17;1.40;;;1.40;;
7171;SDS011;3627;46.544;14.944;2024-02-26T05:42:43;1.50;;;1.50;;
7171;SDS011;3627;46.544;14.944;2024-02-26T05:45:10;1.40;;;1.40;;
7171;SDS011;3627;46.544;14.944;2024-02-26T05:47:38;1.58;;;1.58;;
7171;SDS011;3627;46.544;14.944;2024-02-26T05:50:07;1.60;;;1.60;;
7171;SDS011;3627;46.544;14.944;2024-02-26T05:52:35;1.60;;;1.60;;
7171;SDS011;3627;46.544;14.944;2024-02-26T05:55:02;1.50;;;1.50;;
7171;SDS011;3627;46.544;14.944;2024-02-26T05:57:28;1.52;;;1.52;;
7171;SDS011;3627;46.544;14.944;2024-02-26T05:59:55;1.50;;;1.50;;
7171;SDS011;3627;46.544;14.944;2024-02-26T06:02:21;1.50;;;1.50;;
7171;SDS011;3627;46.544;14.944;2024-02-26T06:04:49;1.40;;;1.40;;
7171;SDS011;3627;46.544;14.944;2024-02-26T06:07:15;1.58;;;1.58;;
7171;SDS011;3627;46.544;14.944;2024-02-26T06:09:41;1.42;;;1.42;;
7171;SDS011;3627;46.544;14.944;2024-02-26T06:12:08;1.50;;;1.50;;
7171;SDS011;3627;46.544;14.944;2024-02-26T06:14:34;1.52;;;1.52;;
7171;SDS011;3627;46.544;14.944;2024-02-26T06:17:01;1.50;;;1.50;;
7171;SDS011;3627;46.544;14.944;2024-02-26T06:19:27;1.45;;;1.45;;
7171;SDS011;3627;46.544;14.944;2024-02-26T06:21:55;1.60;;;1.60;;
7171;SDS011;3627;46.544;14.944;2024-02-26T06:24:21;1.58;;;1.58;;
7171;SDS011;3627;46.544;14.944;2024-02-26T06:26:48;1.50;;;1.50;;
7171;SDS011;3627;46.544;14.944;2024-02-26T06:29:14;1.60;;;1.60;;
7171;SDS011;3627;46.544;14.944;2024-02-26T06:31:40;1.50;;;1.50;;
7171;SDS011;3627;46.544;14.944;2024-02-26T06:34:07;1.50;;;1.50;;
7171;SDS011;3627;46.544;14.944;2024-02-26T06:36:33;1.52;;;1.52;;
7171;SDS011;3627;46.544;14.944;2024-02-26T06:39:01;1.63;;;1.63;;
7171;SDS011;3627;46.544;14.944;2024-02-26T06:41:27;1.67;;;1.67;;
7171;SDS011;3627;46.544;14.944;2024-02-26T06:43:55;1.50;;;1.50;;
7171;SDS011;3627;46.544;14.944;2024-02-26T06:46:21;1.50;;;1.50;;
7171;SDS011;3627;46.544;14.944;2024-02-26T06:48:48;1.50;;;1.50;;
7171;SDS011;3627;46.544;14.944;2024-02-26T06:51:14;1.60;;;1.60;;
7171;SDS011;3627;46.544;14.944;2024-02-26T06:53:41;1.40;;;1.40;;
7171;SDS011;3627;46.544;14.944;2024-02-26T06:56:08;1.70;;;1.70;;
7171;SDS011;3627;46.544;14.944;2024-02-26T06:58:35;1.50;;;1.50;;
7171;SDS011;3627;46.544;14.944;2024-02-26T07:01:01;1.40;;;1.40;;
7171;SDS011;3627;46.544;14.944;2024-02-26T07:03:27;1.50;;;1.50;;
7171;SDS011;3627;46.544;14.944;2024-02-26T07:05:55;1.40;;;1.40;;
7171;SDS011;3627;46.544;14.944;2024-02-26T07:08:22;1.58;;;1.58;;
7171;SDS011;3627;46.544;14.944;2024-02-26T07:10:48;1.40;;;1.40;;
7171;SDS011;3627;46.544;14.944;2024-02-26T07:13:16;1.45;;;1.45;;
7171;SDS011;3627;46.544;14.944;2024-02-26T07:15:42;1.63;;;1.63;;
7171;SDS011;3627;46.544;14.944;2024-02-26T07:18:09;1.50;;;1.50;;
7171;SDS011;3627;46.544;14.944;2024-02-26T07:20:35;1.60;;;1.60;;
7171;SDS011;3627;46.544;14.944;2024-02-26T07:23:01;1.50;;;1.50;;
7171;SDS011;3627;46.544;14.944;2024-02-26T07:25:28;1.50;;;1.50;;
7171;SDS011;3627;46.544;14.944;2024-02-26T07:27:54;1.40;;;1.40;;
7171;SDS011;3627;46.544;14.944;2024-02-26T07:30:22;1.40;;;1.40;;
7171;SDS011;3627;46.544;14.944;2024-02-26T07:32:49;1.40;;;1.40;;
7171;SDS011;3627;46.544;14.944;2024-02-26T07:35:16;1.45;;;1.45;;
7171;SDS011;3627;46.544;14.944;2024-02-26T07:37:42;1.40;;;1.40;;
7171;SDS011;3627;46.544;14.944;2024-02-26T07:40:09;1.50;;;1.50;;
7171;SDS011;3627;46.544;14.944;2024-02-26T07:42:35;1.50;;;1.50;;
7171;SDS011;3627;46.544;14.944;2024-02-26T07:45:02;1.52;;;1.52;;
7171;SDS011;3627;46.544;14.944;2024-02-26T07:47:30;1.40;;;1.40;;
7171;SDS011;3627;46.544;14.944;2024-02-26T07:49:56;1.40;;;1.40;;
7171;SDS011;3627;46.544;14.944;2024-02-26T07:52:22;1.40;;;1.40;;
7171;SDS011;3627;46.544;14.944;2024-02-26T07:54:49;1.33;;;1.33;;
7171;SDS011;3627;46.544;14.944;2024-02-26T07:57:15;1.30;;;1.30;;
7171;SDS011;3627;46.544;14.944;2024-02-26T07:59:42;1.50;;;1.50;;
7171;SDS011;3627;46.544;14.944;2024-02-26T08:02:09;1.40;;;1.40;;
7171;SDS011;3627;46.544;14.944;2024-02-26T08:04:37;1.40;;;1.40;;
7171;SDS011;3627;46.544;14.944;2024-02-26T08:07:04;1.40;;;1.40;;
7171;SDS011;3627;46.544;14.944;2024-02-26T08:09:30;1.30;;;1.30;;
7171;SDS011;3627;46.544;14.944;2024-02-26T08:11:56;1.30;;;1.30;;
7171;SDS011;3627;46.544;14.944;2024-02-26T08:14:23;1.30;;;1.30;;
7171;SDS011;3627;46.544;14.944;2024-02-26T08:16:49;1.48;;;1.48;;
7171;SDS011;3627;46.544;14.944;2024-02-26T08:19:15;1.40;;;1.40;;
7171;SDS011;3627;46.544;14.944;2024-02-26T08:21:44;1.60;;;1.60;;
7171;SDS011;3627;46.544;14.944;2024-02-26T08:24:10;1.33;;;1.33;;
7171;SDS011;3627;46.544;14.944;2024-02-26T08:26:36;1.42;;;1.42;;
7171;SDS011;3627;46.544;14.944;2024-02-26T08:29:03;1.40;;;1.40;;
7171;SDS011;3627;46.544;14.944;2024-02-26T08:31:29;1.42;;;1.42;;
7171;SDS011;3627;46.544;14.944;2024-02-26T08:33:55;1.40;;;1.40;;
7171;SDS011;3627;46.544;14.944;2024-02-26T08:36:23;1.30;;;1.30;;
7171;SDS011;3627;46.544;14.944;2024-02-26T08:38:51;1.20;;;1.20;;
7171;SDS011;3627;46.544;14.944;2024-02-26T08:41:17;1.30;;;1.30;;
7171;SDS011;3627;46.544;14.944;2024-02-26T08:43:43;1.40;;;1.40;;
7171;SDS011;3627;46.544;14.944;2024-02-26T08:46:10;1.30;;;1.30;;
7171;SDS011;3627;46.544;14.944;2024-02-26T08:48:38;1.25;;;1.25;;
7171;SDS011;3627;46.544;14.944;2024-02-26T08:51:05;1.33;;;1.33;;
7171;SDS011;3627;46.544;14.944;2024-02-26T08:53:31;1.30;;;1.30;;
7171;SDS011;3627;46.544;14.944;2024-02-26T08:55:59;1.25;;;1.25;;
7171;SDS011;3627;46.544;14.944;2024-02-26T08:58:26;1.40;;;1.40;;
7171;SDS011;3627;46.544;14.944;2024-02-26T09:00:53;1.30;;;1.30;;
7171;SDS011;3627;46.544;14.944;2024-02-26T09:03:19;1.40;;;1.40;;
7171;SDS011;3627;46.544;14.944;2024-02-26T09:05:45;1.30;;;1.30;;
7171;SDS011;3627;46.544;14.944;2024-02-26T09:08:12;1.30;;;1.30;;
7171;SDS011;3627;46.544;14.944;2024-02-26T09:10:38;1.38;;;1.38;;
7171;SDS011;3627;46.544;14.944;2024-02-26T09:13:06;1.20;;;1.20;;
7171;SDS011;3627;46.544;14.944;2024-02-26T09:15:33;1.30;;;1.30;;
7171;SDS011;3627;46.544;14.944;2024-02-26T09:17:59;1.30;;;1.30;;
7171;SDS011;3627;46.544;14.944;2024-02-26T09:20:26;1.30;;;1.30;;
7171;SDS011;3627;46.544;14.944;2024-02-26T09:22:53;1.20;;;1.20;;
7171;SDS011;3627;46.544;14.944;2024-02-26T09:25:19;1.30;;;1.30;;
7171;SDS011;3627;46.544;14.944;2024-02-26T09:27:46;1.40;;;1.40;;
7171;SDS011;3627;46.544;14.944;2024-02-26T09:30:14;1.30;;;1.30;;
7171;SDS011;3627;46.544;14.944;2024-02-26T09:32:40;1.20;;;1.20;;
7171;SDS011;3627;46.544;14.944;2024-02-26T09:35:07;1.23;;;1.23;;
7171;SDS011;3627;46.544;14.944;2024-02-26T09:37:33;1.15;;;1.15;;
7171;SDS011;3627;46.544;14.944;2024-02-26T09:40:01;1.23;;;1.23;;
7171;SDS011;3627;46.544;14.944;2024-02-26T09:42:28;1.20;;;1.20;;
7171;SDS011;3627;46.544;14.944;2024-02-26T09:44:56;1.40;;;1.40;;
7171;SDS011;3627;46.544;14.944;2024-02-26T09:47:28;1.10;;;1.10;;
7171;SDS011;3627;46.544;14.944;2024-02-26T09:49:55;1.10;;;1.10;;
7171;SDS011;3627;46.544;14.944;2024-02-26T09:52:22;1.15;;;1.15;;
7171;SDS011;3627;46.544;14.944;2024-02-26T09:54:49;1.10;;;1.10;;
7171;SDS011;3627;46.544;14.944;2024-02-26T09:57:16;1.10;;;1.10;;
7171;SDS011;3627;46.544;14.944;2024-02-26T09:59:43;1.00;;;1.00;;
7171;SDS011;3627;46.544;14.944;2024-02-26T10:02:11;1.20;;;1.20;;
7171;SDS011;3627;46.544;14.944;2024-02-26T10:04:39;1.20;;;1.20;;
7171;SDS011;3627;46.544;14.944;2024-02-26T10:07:06;1.15;;;1.15;;
7171;SDS011;3627;46.544;14.944;2024-02-26T10:09:35;1.10;;;1.10;;
7171;SDS011;3627;46.544;14.944;2024-02-26T10:12:02;1.13;;;1.13;;
7171;SDS011;3627;46.544;14.944;2024-02-26T10:14:29;1.10;;;1.10;;
7171;SDS011;3627;46.544;14.944;2024-02-26T10:16:56;1.20;;;1.20;;
7171;SDS011;3627;46.544;14.944;2024-02-26T10:19:25;1.10;;;1.10;;
7171;SDS011;3627;46.544;14.944;2024-02-26T10:21:55;1.10;;;1.10;;
7171;SDS011;3627;46.544;14.944;2024-02-26T10:24:22;1.00;;;1.00;;
7171;SDS011;3627;46.544;14.944;2024-02-26T10:26:48;1.00;;;1.00;;
7171;SDS011;3627;46.544;14.944;2024-02-26T10:29:14;1.20;;;1.20;;
7171;SDS011;3627;46.544;14.944;2024-02-26T10:31:41;1.20;;;1.20;;
7171;SDS011;3627;46.544;14.944;2024-02-26T10:34:08;1.23;;;1.23;;
7171;SDS011;3627;46.544;14.944;2024-02-26T10:36:34;1.10;;;1.10;;
7171;SDS011;3627;46.544;14.944;2024-02-26T10:39:02;1.20;;;1.20;;
7171;SDS011;3627;46.544;14.944;2024-02-26T10:41:29;1.10;;;1.10;;
7171;SDS011;3627;46.544;14.944;2024-02-26T10:43:56;1.10;;;1.10;;
7171;SDS011;3627;46.544;14.944;2024-02-26T10:46:23;1.10;;;1.10;;
7171;SDS011;3627;46.544;14.944;2024-02-26T10:48:49;1.20;;;1.20;;
7171;SDS011;3627;46.544;14.944;2024-02-26T10:51:16;1.00;;;1.00;;
7171;SDS011;3627;46.544;14.944;2024-02-26T10:53:44;1.20;;;1.20;;
7171;SDS011;3627;46.544;14.944;2024-02-26T10:56:13;1.23;;;1.23;;
7171;SDS011;3627;46.544;14.944;2024-02-26T10:58:40;1.20;;;1.20;;
7171;SDS011;3627;46.544;14.944;2024-02-26T11:01:08;1.20;;;1.20;;
7171;SDS011;3627;46.544;14.944;2024-02-26T11:03:35;1.10;;;1.10;;
7171;SDS011;3627;46.544;14.944;2024-02-26T11:06:02;1.30;;;1.30;;
7171;SDS011;3627;46.544;14.944;2024-02-26T11:08:29;1.20;;;1.20;;
7171;SDS011;3627;46.544;14.944;2024-02-26T11:10:57;1.30;;;1.30;;
7171;SDS011;3627;46.544;14.944;2024-02-26T11:13:26;1.17;;;1.17;;
7171;SDS011;3627;46.544;14.944;2024-02-26T11:15:55;1.30;;;1.30;;
7171;SDS011;3627;46.544;14.944;2024-02-26T11:18:22;1.10;;;1.10;;
7171;SDS011;3627;46.544;14.944;2024-02-26T11:20:49;1.25;;;1.25;;
7171;SDS011;3627;46.544;14.944;2024-02-26T11:23:16;1.20;;;1.20;;
7171;SDS011;3627;46.544;14.944;2024-02-26T11:25:43;1.20;;;1.20;;
7171;SDS011;3627;46.544;14.944;2024-02-26T11:28:10;1.20;;;1.20;;
7171;SDS011;3627;46.544;14.944;2024-02-26T11:30:39;1.20;;;1.20;;
7171;SDS011;3627;46.544;14.944;2024-02-26T11:33:08;1.17;;;1.17;;
7171;SDS011;3627;46.544;14.944;2024-02-26T11:35:34;1.15;;;1.15;;
7171;SDS011;3627;46.544;14.944;2024-02-26T11:38:02;1.20;;;1.20;;
7171;SDS011;3627;46.544;14.944;2024-02-26T11:40:30;1.15;;;1.15;;
7171;SDS011;3627;46.544;14.944;2024-02-26T11:42:57;1.20;;;1.20;;
7171;SDS011;3627;46.544;14.944;2024-02-26T11:48:13;1.30;;;1.30;;
7171;SDS011;3627;46.544;14.944;2024-02-26T11:50:40;1.10;;;1.10;;
7171;SDS011;3627;46.544;14.944;2024-02-26T11:53:19;1.20;;;1.20;;
7171;SDS011;3627;46.544;14.944;2024-02-26T11:55:45;1.00;;;1.00;;
7171;SDS011;3627;46.544;14.944;2024-02-26T11:58:12;1.20;;;1.20;;
7171;SDS011;3627;46.544;14.944;2024-02-26T12:00:39;1.13;;;1.13;;
7171;SDS011;3627;46.544;14.944;2024-02-26T12:03:06;1.13;;;1.13;;
7171;SDS011;3627;46.544;14.944;2024-02-26T12:05:34;1.15;;;1.15;;
7171;SDS011;3627;46.544;14.944;2024-02-26T12:08:04;1.08;;;1.08;;
7171;SDS011;3627;46.544;14.944;2024-02-26T12:10:32;1.30;;;1.30;;
7171;SDS011;3627;46.544;14.944;2024-02-26T12:13:03;1.20;;;1.20;;
7171;SDS011;3627;46.544;14.944;2024-02-26T12:15:31;1.00;;;1.00;;
7171;SDS011;3627;46.544;14.944;2024-02-26T12:17:59;1.30;;;1.30;;
7171;SDS011;3627;46.544;14.944;2024-02-26T12:20:26;1.27;;;1.27;;
7171;SDS011;3627;46.544;14.944;2024-02-26T12:22:54;1.20;;;1.20;;
7171;SDS011;3627;46.544;14.944;2024-02-26T12:25:22;1.10;;;1.10;;
7171;SDS011;3627;46.544;14.944;2024-02-26T12:27:49;1.10;;;1.10;;
7171;SDS011;3627;46.544;14.944;2024-02-26T12:30:16;1.27;;;1.27;;
7171;SDS011;3627;46.544;14.944;2024-02-26T12:32:43;1.20;;;1.20;;
7171;SDS011;3627;46.544;14.944;2024-02-26T12:35:09;1.10;;;1.10;;
7171;SDS011;3627;46.544;14.944;2024-02-26T12:37:35;1.10;;;1.10;;
7171;SDS011;3627;46.544;14.944;2024-02-26T12:40:05;1.10;;;1.10;;
7171;SDS011;3627;46.544;14.944;2024-02-26T12:42:33;1.13;;;1.13;;
7171;SDS011;3627;46.544;14.944;2024-02-26T12:45:04;1.10;;;1.10;;
7171;SDS011;3627;46.544;14.944;2024-02-26T12:47:34;1.30;;;1.30;;
7171;SDS011;3627;46.544;14.944;2024-02-26T12:50:01;1.10;;;1.10;;
7171;SDS011;3627;46.544;14.944;2024-02-26T12:52:29;1.20;;;1.20;;
7171;SDS011;3627;46.544;14.944;2024-02-26T12:54:55;1.30;;;1.30;;
7171;SDS011;3627;46.544;14.944;2024-02-26T12:57:23;1.10;;;1.10;;
7171;SDS011;3627;46.544;14.944;2024-02-26T12:59:50;1.30;;;1.30;;
7171;SDS011;3627;46.544;14.944;2024-02-26T13:02:17;1.20;;;1.20;;
7171;SDS011;3627;46.544;14.944;2024-02-26T13:04:43;1.30;;;1.30;;
7171;SDS011;3627;46.544;14.944;2024-02-26T13:07:10;1.15;;;1.15;;
7171;SDS011;3627;46.544;14.944;2024-02-26T13:09:36;1.10;;;1.10;;
7171;SDS011;3627;46.544;14.944;2024-02-26T13:12:03;1.20;;;1.20;;
7171;SDS011;3627;46.544;14.944;2024-02-26T13:14:31;1.00;;;1.00;;
7171;SDS011;3627;46.544;14.944;2024-02-26T13:16:59;1.15;;;1.15;;
7171;SDS011;3627;46.544;14.944;2024-02-26T13:19:25;1.10;;;1.10;;
7171;SDS011;3627;46.544;14.944;2024-02-26T13:21:52;1.10;;;1.10;;
7171;SDS011;3627;46.544;14.944;2024-02-26T13:24:19;1.10;;;1.10;;
7171;SDS011;3627;46.544;14.944;2024-02-26T13:26:47;1.10;;;1.10;;
7171;SDS011;3627;46.544;14.944;2024-02-26T13:29:16;1.23;;;1.23;;
7171;SDS011;3627;46.544;14.944;2024-02-26T13:31:44;1.10;;;1.10;;
7171;SDS011;3627;46.544;14.944;2024-02-26T13:34:11;1.20;;;1.20;;
7171;SDS011;3627;46.544;14.944;2024-02-26T13:36:38;1.10;;;1.10;;
7171;SDS011;3627;46.544;14.944;2024-02-26T13:39:04;1.20;;;1.20;;
7171;SDS011;3627;46.544;14.944;2024-02-26T13:41:31;1.17;;;1.17;;
7171;SDS011;3627;46.544;14.944;2024-02-26T13:43:57;1.20;;;1.20;;
7171;SDS011;3627;46.544;14.944;2024-02-26T13:46:23;1.27;;;1.27;;
7171;SDS011;3627;46.544;14.944;2024-02-26T13:48:51;1.25;;;1.25;;
7171;SDS011;3627;46.544;14.944;2024-02-26T13:51:19;1.10;;;1.10;;
7171;SDS011;3627;46.544;14.944;2024-02-26T13:53:46;1.15;;;1.15;;
7171;SDS011;3627;46.544;14.944;2024-02-26T13:56:12;1.20;;;1.20;;
7171;SDS011;3627;46.544;14.944;2024-02-26T13:58:38;1.10;;;1.10;;
7171;SDS011;3627;46.544;14.944;2024-02-26T14:01:05;1.10;;;1.10;;
7171;SDS011;3627;46.544;14.944;2024-02-26T14:03:31;1.10;;;1.10;;
7171;SDS011;3627;46.544;14.944;2024-02-26T14:05:59;1.10;;;1.10;;
7171;SDS011;3627;46.544;14.944;2024-02-26T14:08:25;1.05;;;1.05;;
7171;SDS011;3627;46.544;14.944;2024-02-26T14:10:52;1.27;;;1.27;;
7171;SDS011;3627;46.544;14.944;2024-02-26T14:13:18;1.10;;;1.10;;
7171;SDS011;3627;46.544;14.944;2024-02-26T14:15:45;1.27;;;1.27;;
7171;SDS011;3627;46.544;14.944;2024-02-26T14:18:11;1.10;;;1.10;;
7171;SDS011;3627;46.544;14.944;2024-02-26T14:20:38;1.10;;;1.10;;
7171;SDS011;3627;46.544;14.944;2024-02-26T14:23:07;1.10;;;1.10;;
7171;SDS011;3627;46.544;14.944;2024-02-26T14:25:33;1.10;;;1.10;;
7171;SDS011;3627;46.544;14.944;2024-02-26T14:28:00;1.20;;;1.20;;
7171;SDS011;3627;46.544;14.944;2024-02-26T14:30:26;1.20;;;1.20;;
7171;SDS011;3627;46.544;14.944;2024-02-26T14:32:52;1.20;;;1.20;;
7171;SDS011;3627;46.544;14.944;2024-02-26T14:35:19;1.20;;;1.20;;
7171;SDS011;3627;46.544;14.944;2024-02-26T14:37:45;1.33;;;1.33;;
7171;SDS011;3627;46.544;14.944;2024-02-26T14:40:14;1.33;;;1.33;;
7171;SDS011;3627;46.544;14.944;2024-02-26T14:42:40;1.30;;;1.30;;
7171;SDS011;3627;46.544;14.944;2024-02-26T14:45:07;1.20;;;1.20;;
7171;SDS011;3627;46.544;14.944;2024-02-26T14:47:34;1.40;;;1.40;;
7171;SDS011;3627;46.544;14.944;2024-02-26T14:50:01;1.20;;;1.20;;
7171;SDS011;3627;46.544;14.944;2024-02-26T14:52:28;1.25;;;1.25;;
7171;SDS011;3627;46.544;14.944;2024-02-26T14:54:54;1.17;;;1.17;;
7171;SDS011;3627;46.544;14.944;2024-02-26T14:57:22;1.20;;;1.20;;
7171;SDS011;3627;46.544;14.944;2024-02-26T14:59:48;1.20;;;1.20;;
7171;SDS011;3627;46.544;14.944;2024-02-26T15:02:15;1.17;;;1.17;;